PWSweather.com
Personal Weather Stations
Station Observations

SkegnessGB

Lat: 53.147585, Lon: 0.345774

Elevation: 18

Station Type: Fine Offset WH3080

http://www.skegnessweather.info/

Latest ConditionsUpdated 1:30:00 PM GMT Friday, Jan 19, 2018
Currently Today's Max Today's Min Today's Average
Temperature 37.6°F3.1°C 38.1°F3.4°C 30.7°F-0.7°C 32.6°F0.3°C
Dew Point 34.3°F1.3°C 34.3°F1.3°C 29.2°F-1.6°C 30.8°F-0.7°C
Winds 5.2 mph SSW8.4 kmh SSW 7.6 mph SSW12.2 kmh SSW - 5.4 mph 8.7 kmh
Wind Gusts 6.6 mph10.6 kmh 10.8 mph17.4 kmh - -
Humidity 88% 95% 85% 93%
Pressure 29.65 in1004.1 mb 29.68 in1005.1 mb 29.58 in1001.7 mb -
Hour Temp Dew Point Humidity Winds Wind Gusts Pressure Precip Precip Rate Daily Precip Total
01:30 PM 37.6°F3.1°C 34.3°F1.3°C 88% 5.2 mph SSW8.4 kmh SSW 6.6 mph10.6 kmh 29.65 in1004.1 mb 0.00 in0.0 mm 0.00 in0.0 mm 0.00 in0.0 mm
01:20 PM 37.4°F3.0°C 34.2°F1.2°C 88% 6.4 mph SW10.3 kmh SW 7.6 mph12.2 kmh 29.65 in1004.1 mb 0.00 in0.0 mm 0.00 in0.0 mm 0.00 in0.0 mm
01:10 PM 37.0°F2.8°C 33.8°F1.0°C 88% 5.8 mph SW9.3 kmh SW 6.6 mph10.6 kmh 29.65 in1004.1 mb 0.00 in0.0 mm 0.00 in0.0 mm 0.00 in0.0 mm
01:00 PM 36.7°F2.6°C 33.5°F0.8°C 88% 5.5 mph SW8.9 kmh SW 7.6 mph12.2 kmh 29.65 in1004.1 mb 0.00 in0.0 mm 0.00 in0.0 mm 0.00 in0.0 mm
12:50 PM 36.7°F2.6°C 33.2°F0.7°C 87% 6.2 mph SSW10.0 kmh SSW 7.6 mph12.2 kmh 29.66 in1004.4 mb 0.00 in0.0 mm 0.00 in0.0 mm 0.00 in0.0 mm
12:40 PM 36.7°F2.6°C 32.9°F0.5°C 86% 6.7 mph SW10.8 kmh SW 6.6 mph10.6 kmh 29.66 in1004.4 mb 0.00 in0.0 mm 0.00 in0.0 mm 0.00 in0.0 mm
12:30 PM 37.0°F2.8°C 33.2°F0.7°C 86% 6.1 mph SSW9.8 kmh SSW 8.4 mph13.5 kmh 29.66 in1004.4 mb 0.00 in0.0 mm 0.00 in0.0 mm 0.00 in0.0 mm
12:20 PM 37.9°F3.3°C 33.8°F1.0°C 85% 6.0 mph SSW9.7 kmh SSW 6.6 mph10.6 kmh 29.66 in1004.4 mb 0.00 in0.0 mm 0.00 in0.0 mm 0.00 in0.0 mm
12:10 PM 38.1°F3.4°C 34.3°F1.3°C 86% 6.3 mph SW10.1 kmh SW 9.1 mph14.6 kmh 29.67 in1004.7 mb 0.00 in0.0 mm 0.00 in0.0 mm 0.00 in0.0 mm
12:00 PM 37.6°F3.1°C 33.8°F1.0°C 86% 6.9 mph SSW11.1 kmh SSW 8.4 mph13.5 kmh 29.67 in1004.7 mb 0.00 in0.0 mm 0.00 in0.0 mm 0.00 in0.0 mm
11:50 AM 36.7°F2.6°C 32.9°F0.5°C 86% 7.0 mph SSW11.3 kmh SSW 7.6 mph12.2 kmh 29.67 in1004.7 mb 0.00 in0.0 mm 0.00 in0.0 mm 0.00 in0.0 mm
11:40 AM 36.7°F2.6°C 33.2°F0.7°C 87% 7.6 mph SSW12.2 kmh SSW 10.1 mph16.3 kmh 29.67 in1004.7 mb 0.00 in0.0 mm 0.00 in0.0 mm 0.00 in0.0 mm
11:30 AM 36.9°F2.7°C 33.6°F0.9°C 88% 7.2 mph S11.6 kmh S 9.1 mph14.6 kmh 29.68 in1005.1 mb 0.00 in0.0 mm 0.00 in0.0 mm 0.00 in0.0 mm
11:20 AM 36.7°F2.6°C 34.3°F1.3°C 91% 7.1 mph SSW11.4 kmh SSW 9.1 mph14.6 kmh 29.67 in1004.7 mb 0.00 in0.0 mm 0.00 in0.0 mm 0.00 in0.0 mm
11:10 AM 36.0°F2.2°C 33.9°F1.1°C 92% 6.1 mph NE9.8 kmh NE 7.6 mph12.2 kmh 29.67 in1004.7 mb 0.00 in0.0 mm 0.00 in0.0 mm 0.00 in0.0 mm
11:00 AM 35.4°F1.9°C 33.3°F0.7°C 92% 6.7 mph SW10.8 kmh SW 7.6 mph12.2 kmh 29.67 in1004.7 mb 0.00 in0.0 mm 0.00 in0.0 mm 0.00 in0.0 mm
10:50 AM 34.9°F1.6°C 32.8°F0.4°C 92% 5.9 mph SW9.5 kmh SW 7.6 mph12.2 kmh 29.66 in1004.4 mb 0.00 in0.0 mm 0.00 in0.0 mm 0.00 in0.0 mm
10:40 AM 34.7°F1.5°C 32.6°F0.3°C 92% 4.8 mph SW7.7 kmh SW 4.9 mph7.9 kmh 29.67 in1004.7 mb 0.00 in0.0 mm 0.00 in0.0 mm 0.00 in0.0 mm
10:30 AM 33.8°F1.0°C 31.7°F-0.2°C 92% 6.0 mph S9.7 kmh S 6.6 mph10.6 kmh 29.67 in1004.7 mb 0.00 in0.0 mm 0.00 in0.0 mm 0.00 in0.0 mm
10:20 AM 34.0°F1.1°C 32.2°F0.1°C 93% 6.0 mph SW9.7 kmh SW 6.6 mph10.6 kmh 29.67 in1004.7 mb 0.00 in0.0 mm 0.00 in0.0 mm 0.00 in0.0 mm
10:10 AM 33.3°F0.7°C 31.5°F-0.3°C 93% 5.6 mph SSW9.0 kmh SSW 6.6 mph10.6 kmh 29.66 in1004.4 mb 0.00 in0.0 mm 0.00 in0.0 mm 0.00 in0.0 mm
10:00 AM 33.1°F0.6°C 31.5°F-0.3°C 94% 5.9 mph SW9.5 kmh SW 6.6 mph10.6 kmh 29.66 in1004.4 mb 0.00 in0.0 mm 0.00 in0.0 mm 0.00 in0.0 mm
09:50 AM 32.5°F0.3°C 31.0°F-0.6°C 94% 5.4 mph WSW8.7 kmh WSW 6.6 mph10.6 kmh 29.66 in1004.4 mb 0.00 in0.0 mm 0.00 in0.0 mm 0.00 in0.0 mm
09:40 AM 32.0°F0.0°C 30.5°F-0.8°C 94% 6.8 mph SW10.9 kmh SW 8.4 mph13.5 kmh 29.66 in1004.4 mb 0.00 in0.0 mm 0.00 in0.0 mm 0.00 in0.0 mm
09:30 AM 31.5°F-0.3°C 29.9°F-1.2°C 94% 5.6 mph SW9.0 kmh SW 5.9 mph9.5 kmh 29.66 in1004.4 mb 0.00 in0.0 mm 0.00 in0.0 mm 0.00 in0.0 mm
09:20 AM 31.3°F-0.4°C 29.8°F-1.2°C 94% 4.9 mph SW7.9 kmh SW 4.9 mph7.9 kmh 29.66 in1004.4 mb 0.00 in0.0 mm 0.00 in0.0 mm 0.00 in0.0 mm
09:10 AM 31.1°F-0.5°C 29.6°F-1.3°C 94% 5.5 mph SSE8.9 kmh SSE 4.9 mph7.9 kmh 29.66 in1004.4 mb 0.00 in0.0 mm 0.00 in0.0 mm 0.00 in0.0 mm
09:00 AM 31.1°F-0.5°C 29.6°F-1.3°C 94% 5.5 mph SW8.9 kmh SW 7.6 mph12.2 kmh 29.66 in1004.4 mb 0.00 in0.0 mm 0.00 in0.0 mm 0.00 in0.0 mm
08:50 AM 31.1°F-0.5°C 29.6°F-1.3°C 94% 5.2 mph SW8.4 kmh SW 6.6 mph10.6 kmh 29.66 in1004.4 mb 0.00 in0.0 mm 0.00 in0.0 mm 0.00 in0.0 mm
08:40 AM 31.1°F-0.5°C 29.6°F-1.3°C 94% 5.6 mph SSW9.0 kmh SSW 7.6 mph12.2 kmh 29.65 in1004.1 mb 0.00 in0.0 mm 0.00 in0.0 mm 0.00 in0.0 mm
08:30 AM 31.1°F-0.5°C 29.6°F-1.3°C 94% 5.9 mph SW9.5 kmh SW 6.6 mph10.6 kmh 29.65 in1004.1 mb 0.00 in0.0 mm 0.00 in0.0 mm 0.00 in0.0 mm
08:20 AM 30.9°F-0.6°C 29.4°F-1.4°C 94% 6.9 mph SW11.1 kmh SW 10.1 mph16.3 kmh 29.65 in1004.1 mb 0.00 in0.0 mm 0.00 in0.0 mm 0.00 in0.0 mm
08:10 AM 30.7°F-0.7°C 29.2°F-1.6°C 94% 5.9 mph SW9.5 kmh SW 6.6 mph10.6 kmh 29.65 in1004.1 mb 0.00 in0.0 mm 0.00 in0.0 mm 0.00 in0.0 mm
08:00 AM 30.7°F-0.7°C 29.2°F-1.6°C 94% 5.6 mph S9.0 kmh S 5.9 mph9.5 kmh 29.65 in1004.1 mb 0.00 in0.0 mm 0.00 in0.0 mm 0.00 in0.0 mm
07:50 AM 30.7°F-0.7°C 29.2°F-1.6°C 94% 5.7 mph SW9.2 kmh SW 8.4 mph13.5 kmh 29.65 in1004.1 mb 0.00 in0.0 mm 0.00 in0.0 mm 0.00 in0.0 mm
07:40 AM 30.7°F-0.7°C 29.2°F-1.6°C 94% 5.4 mph SSW8.7 kmh SSW 6.6 mph10.6 kmh 29.65 in1004.1 mb 0.00 in0.0 mm 0.00 in0.0 mm 0.00 in0.0 mm
07:30 AM 30.9°F-0.6°C 29.4°F-1.4°C 94% 6.7 mph SW10.8 kmh SW 7.6 mph12.2 kmh 29.65 in1004.1 mb 0.00 in0.0 mm 0.00 in0.0 mm 0.00 in0.0 mm
07:20 AM 30.9°F-0.6°C 29.4°F-1.4°C 94% 6.7 mph SSW10.8 kmh SSW 8.4 mph13.5 kmh 29.64 in1003.7 mb 0.00 in0.0 mm 0.00 in0.0 mm 0.00 in0.0 mm
07:10 AM 31.1°F-0.5°C 29.6°F-1.3°C 94% 5.5 mph ESE8.9 kmh ESE 6.6 mph10.6 kmh 29.64 in1003.7 mb 0.00 in0.0 mm 0.00 in0.0 mm 0.00 in0.0 mm
07:00 AM 31.1°F-0.5°C 29.6°F-1.3°C 94% 6.8 mph SW10.9 kmh SW 9.1 mph14.6 kmh 29.64 in1003.7 mb 0.00 in0.0 mm 0.00 in0.0 mm 0.00 in0.0 mm
06:50 AM 31.1°F-0.5°C 29.6°F-1.3°C 94% 6.4 mph SW10.3 kmh SW 9.1 mph14.6 kmh 29.64 in1003.7 mb 0.00 in0.0 mm 0.00 in0.0 mm 0.00 in0.0 mm
06:40 AM 31.1°F-0.5°C 29.6°F-1.3°C 94% 5.9 mph SSW9.5 kmh SSW 6.6 mph10.6 kmh 29.63 in1003.4 mb 0.00 in0.0 mm 0.00 in0.0 mm 0.00 in0.0 mm
06:30 AM 31.1°F-0.5°C 29.6°F-1.3°C 94% 6.5 mph SW10.5 kmh SW 7.6 mph12.2 kmh 29.64 in1003.7 mb 0.00 in0.0 mm 0.00 in0.0 mm 0.00 in0.0 mm
06:20 AM 30.7°F-0.7°C 29.2°F-1.6°C 94% 5.1 mph SW8.2 kmh SW 5.9 mph9.5 kmh 29.63 in1003.4 mb 0.00 in0.0 mm 0.00 in0.0 mm 0.00 in0.0 mm
06:10 AM 30.7°F-0.7°C 29.2°F-1.6°C 94% 5.6 mph WSW9.0 kmh WSW 5.9 mph9.5 kmh 29.63 in1003.4 mb 0.00 in0.0 mm 0.00 in0.0 mm 0.00 in0.0 mm
06:00 AM 30.7°F-0.7°C 29.2°F-1.6°C 94% 4.3 mph SW6.9 kmh SW 5.9 mph9.5 kmh 29.62 in1003.0 mb 0.00 in0.0 mm 0.00 in0.0 mm 0.00 in0.0 mm
05:50 AM 30.7°F-0.7°C 29.2°F-1.6°C 94% 5.4 mph WSW8.7 kmh WSW 6.6 mph10.6 kmh 29.62 in1003.0 mb 0.00 in0.0 mm 0.00 in0.0 mm 0.00 in0.0 mm
05:40 AM 30.9°F-0.6°C 29.4°F-1.4°C 94% 6.5 mph SSW10.5 kmh SSW 7.6 mph12.2 kmh 29.63 in1003.4 mb 0.00 in0.0 mm 0.00 in0.0 mm 0.00 in0.0 mm
05:30 AM 31.1°F-0.5°C 29.6°F-1.3°C 94% 5.7 mph SW9.2 kmh SW 6.6 mph10.6 kmh 29.63 in1003.4 mb 0.00 in0.0 mm 0.00 in0.0 mm 0.00 in0.0 mm
05:20 AM 31.1°F-0.5°C 29.8°F-1.2°C 95% 5.6 mph S9.0 kmh S 7.6 mph12.2 kmh 29.62 in1003.0 mb 0.00 in0.0 mm 0.00 in0.0 mm 0.00 in0.0 mm
05:10 AM 31.1°F-0.5°C 29.8°F-1.2°C 95% 4.3 mph SSW6.9 kmh SSW 4.9 mph7.9 kmh 29.62 in1003.0 mb 0.00 in0.0 mm 0.00 in0.0 mm 0.00 in0.0 mm
05:00 AM 30.7°F-0.7°C 29.2°F-1.6°C 94% 4.2 mph W6.8 kmh W 4.9 mph7.9 kmh 29.62 in1003.0 mb 0.00 in0.0 mm 0.00 in0.0 mm 0.00 in0.0 mm
04:50 AM 30.7°F-0.7°C 29.2°F-1.6°C 94% 3.1 mph S5.0 kmh S 4.9 mph7.9 kmh 29.62 in1003.0 mb 0.00 in0.0 mm 0.00 in0.0 mm 0.00 in0.0 mm
04:40 AM 30.7°F-0.7°C 29.2°F-1.6°C 94% 3.3 mph S5.3 kmh S 4.9 mph7.9 kmh 29.62 in1003.0 mb 0.00 in0.0 mm 0.00 in0.0 mm 0.00 in0.0 mm
04:30 AM 30.7°F-0.7°C 29.2°F-1.6°C 94% 2.8 mph SW4.5 kmh SW 3.4 mph5.5 kmh 29.62 in1003.0 mb 0.00 in0.0 mm 0.00 in0.0 mm 0.00 in0.0 mm
04:20 AM 30.9°F-0.6°C 29.4°F-1.4°C 94% 2.6 mph S4.2 kmh S 4.2 mph6.8 kmh 29.62 in1003.0 mb 0.00 in0.0 mm 0.00 in0.0 mm 0.00 in0.0 mm
04:10 AM 31.1°F-0.5°C 29.6°F-1.3°C 94% 1.6 mph SW2.6 kmh SW 2.5 mph4.0 kmh 29.62 in1003.0 mb 0.00 in0.0 mm 0.00 in0.0 mm 0.00 in0.0 mm
04:00 AM 31.3°F-0.4°C 29.8°F-1.2°C 94% 2.2 mph SW3.5 kmh SW 3.4 mph5.5 kmh 29.62 in1003.0 mb 0.00 in0.0 mm 0.00 in0.0 mm 0.00 in0.0 mm
03:50 AM 31.5°F-0.3°C 29.9°F-1.2°C 94% 0.9 mph SW1.4 kmh SW 3.4 mph5.5 kmh 29.62 in1003.0 mb 0.00 in0.0 mm 0.00 in0.0 mm 0.00 in0.0 mm
03:40 AM 31.6°F-0.2°C 30.1°F-1.1°C 94% 4.0 mph SW6.4 kmh SW 4.9 mph7.9 kmh 29.62 in1003.0 mb 0.00 in0.0 mm 0.00 in0.0 mm 0.00 in0.0 mm
03:30 AM 31.5°F-0.3°C 29.9°F-1.2°C 94% 4.7 mph SW7.6 kmh SW 5.9 mph9.5 kmh 29.61 in1002.7 mb 0.00 in0.0 mm 0.00 in0.0 mm 0.00 in0.0 mm
03:20 AM 31.5°F-0.3°C 29.9°F-1.2°C 94% 4.0 mph S6.4 kmh S 5.9 mph9.5 kmh 29.61 in1002.7 mb 0.00 in0.0 mm 0.00 in0.0 mm 0.00 in0.0 mm
03:10 AM 31.6°F-0.2°C 30.1°F-1.1°C 94% 2.7 mph SW4.3 kmh SW 3.4 mph5.5 kmh 29.62 in1003.0 mb 0.00 in0.0 mm 0.00 in0.0 mm 0.00 in0.0 mm
03:00 AM 32.0°F0.0°C 30.5°F-0.8°C 94% 3.3 mph SSW5.3 kmh SSW 4.2 mph6.8 kmh 29.61 in1002.7 mb 0.00 in0.0 mm 0.00 in0.0 mm 0.00 in0.0 mm
02:50 AM 32.2°F0.1°C 30.6°F-0.8°C 94% 3.7 mph WSW6.0 kmh WSW 4.9 mph7.9 kmh 29.61 in1002.7 mb 0.00 in0.0 mm 0.00 in0.0 mm 0.00 in0.0 mm
02:40 AM 32.4°F0.2°C 31.1°F-0.5°C 95% 7.0 mph WSW11.3 kmh WSW 10.1 mph16.3 kmh 29.61 in1002.7 mb 0.00 in0.0 mm 0.00 in0.0 mm 0.00 in0.0 mm
02:30 AM 32.4°F0.2°C 31.1°F-0.5°C 95% 6.3 mph W10.1 kmh W 8.4 mph13.5 kmh 29.61 in1002.7 mb 0.00 in0.0 mm 0.00 in0.0 mm 0.00 in0.0 mm
02:20 AM 32.2°F0.1°C 30.9°F-0.6°C 95% 6.3 mph WSW10.1 kmh WSW 7.6 mph12.2 kmh 29.61 in1002.7 mb 0.00 in0.0 mm 0.00 in0.0 mm 0.00 in0.0 mm
02:10 AM 32.0°F0.0°C 30.7°F-0.7°C 95% 4.9 mph SW7.9 kmh SW 7.6 mph12.2 kmh 29.60 in1002.4 mb 0.00 in0.0 mm 0.00 in0.0 mm 0.00 in0.0 mm
02:00 AM 31.8°F-0.1°C 30.6°F-0.8°C 95% 4.8 mph SSW7.7 kmh SSW 5.9 mph9.5 kmh 29.60 in1002.4 mb 0.00 in0.0 mm 0.00 in0.0 mm 0.00 in0.0 mm
01:50 AM 31.6°F-0.2°C 30.1°F-1.1°C 94% 4.4 mph W7.1 kmh W 5.9 mph9.5 kmh 29.60 in1002.4 mb 0.00 in0.0 mm 0.00 in0.0 mm 0.00 in0.0 mm
01:40 AM 31.8°F-0.1°C 30.3°F-0.9°C 94% 5.6 mph SW9.0 kmh SW 7.6 mph12.2 kmh 29.59 in1002.0 mb 0.00 in0.0 mm 0.00 in0.0 mm 0.00 in0.0 mm
01:30 AM 31.8°F-0.1°C 30.6°F-0.8°C 95% 5.4 mph SW8.7 kmh SW 7.6 mph12.2 kmh 29.60 in1002.4 mb 0.00 in0.0 mm 0.00 in0.0 mm 0.00 in0.0 mm
01:20 AM 32.0°F0.0°C 30.7°F-0.7°C 95% 6.2 mph WSW10.0 kmh WSW 8.4 mph13.5 kmh 29.59 in1002.0 mb 0.00 in0.0 mm 0.00 in0.0 mm 0.00 in0.0 mm
01:10 AM 32.0°F0.0°C 30.7°F-0.7°C 95% 5.2 mph S8.4 kmh S 5.9 mph9.5 kmh 29.59 in1002.0 mb 0.00 in0.0 mm 0.00 in0.0 mm 0.00 in0.0 mm
01:00 AM 32.0°F0.0°C 30.7°F-0.7°C 95% 6.7 mph S10.8 kmh S 10.8 mph17.4 kmh 29.58 in1001.7 mb 0.00 in0.0 mm 0.00 in0.0 mm 0.00 in0.0 mm
12:50 AM 32.0°F0.0°C 30.7°F-0.7°C 95% 6.8 mph SW10.9 kmh SW 8.4 mph13.5 kmh 29.59 in1002.0 mb 0.00 in0.0 mm 0.00 in0.0 mm 0.00 in0.0 mm
12:40 AM 32.0°F0.0°C 30.7°F-0.7°C 95% 7.0 mph SW11.3 kmh SW 8.4 mph13.5 kmh 29.59 in1002.0 mb 0.00 in0.0 mm 0.00 in0.0 mm 0.00 in0.0 mm
12:30 AM 31.8°F-0.1°C 30.6°F-0.8°C 95% 5.8 mph SW9.3 kmh SW 6.6 mph10.6 kmh 29.59 in1002.0 mb 0.00 in0.0 mm 0.00 in0.0 mm 0.00 in0.0 mm
12:20 AM 31.8°F-0.1°C 30.6°F-0.8°C 95% 6.4 mph W10.3 kmh W 7.6 mph12.2 kmh 29.59 in1002.0 mb 0.00 in0.0 mm 0.00 in0.0 mm 0.00 in0.0 mm
12:10 AM 31.8°F-0.1°C 30.6°F-0.8°C 95% 5.8 mph S9.3 kmh S 7.6 mph12.2 kmh 29.58 in1001.7 mb 0.00 in0.0 mm 0.00 in0.0 mm 0.00 in0.0 mm
12:00 AM 31.8°F-0.1°C 30.6°F-0.8°C 95% 3.8 mph WSW6.1 kmh WSW 4.2 mph6.8 kmh 29.59 in1002.0 mb 0.00 in0.0 mm 0.00 in0.0 mm 0.00 in0.0 mm